Time;durP1;ratioP1;P1;durP2;ratioP2;P2;SDS_P1;SDS_P2;PMS_P1;PMS_P2;Temp;Humidity;BMP_temperature;BMP_pressure;BME280_temperature;BME280_humidity;BME280_pressure;Samples;Min_cycle;Max_cycle;Signal;HPM_P1;HPM_P2
2023/01/18 00:01:18;;;;;;;42.27;22.80;;;-2.20;99.90;;;;;;4913131;29;20228;-63
2023/01/18 00:03:49;;;;;;;45.07;22.03;;;-2.20;99.90;;;;;;4911076;29;21848;-63
2023/01/18 00:06:17;;;;;;;41.80;21.57;;;-2.30;99.90;;;;;;4919125;29;20285;-63
2023/01/18 00:08:47;;;;;;;38.70;19.83;;;-2.20;99.90;;;;;;4891781;29;20312;-63
2023/01/18 00:11:17;;;;;;;38.03;20.43;;;-2.30;99.90;;;;;;4907633;29;20711;-63
2023/01/18 00:13:48;;;;;;;40.40;19.80;;;-2.30;99.90;;;;;;4903362;29;20194;-63
2023/01/18 00:16:36;;;;;;;34.10;17.97;;;-2.20;99.90;;;;;;4913947;29;20285;-63
2023/01/18 00:19:11;;;;;;;41.73;18.77;;;-2.20;99.90;;;;;;4902300;29;20201;-63
2023/01/18 00:21:40;;;;;;;37.80;17.43;;;-2.10;99.90;;;;;;4906100;29;20285;-63
2023/01/18 00:24:13;;;;;;;32.67;18.60;;;-2.10;99.90;;;;;;4912718;29;20238;-63
2023/01/18 00:26:43;;;;;;;37.77;17.47;;;-2.10;99.90;;;;;;4907794;29;20664;-63
2023/01/18 00:29:12;;;;;;;29.33;16.33;;;-2.20;99.90;;;;;;4906708;29;20195;-63
2023/01/18 00:31:41;;;;;;;33.40;17.60;;;-2.20;99.90;;;;;;4908167;29;20684;-63
2023/01/18 00:34:12;;;;;;;32.57;17.23;;;-2.20;99.90;;;;;;4891013;29;20580;-63
2023/01/18 00:36:40;;;;;;;41.00;18.53;;;-2.20;99.90;;;;;;4913719;29;20214;-64
2023/01/18 00:39:09;;;;;;;34.57;17.17;;;-2.20;99.90;;;;;;4914597;29;20216;-63
2023/01/18 00:43:37;;;;;;;38.77;17.07;;;-2.20;99.90;;;;;;4908194;29;20212;-63
2023/01/18 00:44:25;;;;;;;30.80;16.37;;;-2.10;99.90;;;;;;4916793;29;20216;-63
2023/01/18 00:46:54;;;;;;;31.10;16.97;;;-2.20;99.90;;;;;;4908732;29;20697;-63
2023/01/18 00:49:25;;;;;;;38.00;17.13;;;-2.20;99.90;;;;;;4919194;29;20208;-63
2023/01/18 00:51:54;;;;;;;34.13;16.87;;;-2.30;99.90;;;;;;4919122;29;20280;-63
2023/01/18 00:54:25;;;;;;;33.37;16.47;;;-2.40;99.90;;;;;;4911688;29;20645;-63
2023/01/18 00:56:54;;;;;;;30.07;17.17;;;-2.40;99.90;;;;;;4916640;29;20204;-63
2023/01/18 00:59:22;;;;;;;32.47;16.67;;;-2.40;99.90;;;;;;4915662;29;20194;-63
2023/01/18 01:01:50;;;;;;;33.17;17.43;;;-2.40;99.90;;;;;;4914509;29;20546;-63
2023/01/18 01:07:06;;;;;;;31.63;17.00;;;-2.40;99.90;;;;;;4911845;29;20197;-63
2023/01/18 01:09:34;;;;;;;32.47;17.53;;;-2.40;99.90;;;;;;4913022;29;20722;-63
2023/01/18 01:26:04;;;;;;;30.63;16.83;;;-2.70;99.90;;;;;;4912417;29;20612;-64
2023/01/18 01:28:32;;;;;;;34.90;17.87;;;-2.70;99.90;;;;;;4910077;29;20189;-64
2023/01/18 01:31:01;;;;;;;34.67;17.93;;;-2.70;99.90;;;;;;4910160;29;20204;-64
2023/01/18 01:33:32;;;;;;;33.93;16.87;;;-2.70;99.90;;;;;;4913934;29;20217;-64
2023/01/18 01:36:02;;;;;;;29.47;16.33;;;-2.80;99.90;;;;;;4914821;29;20202;-64
2023/01/18 01:38:32;;;;;;;31.27;15.30;;;-2.80;99.90;;;;;;4914937;29;20197;-64
2023/01/18 01:41:03;;;;;;;30.73;17.17;;;-2.80;99.90;;;;;;4911333;29;20205;-64
2023/01/18 01:43:48;;;;;;;34.43;17.87;;;-2.80;99.90;;;;;;4916738;29;20522;-64
2023/01/18 01:46:24;;;;;;;28.63;16.83;;;-2.70;99.90;;;;;;4914221;29;20202;-64
2023/01/18 01:49:00;;;;;;;35.37;16.47;;;-2.70;99.90;;;;;;4914651;29;20205;-64
2023/01/18 01:51:29;;;;;;;31.80;16.97;;;-2.60;99.90;;;;;;4910517;29;20228;-63
2023/01/18 01:54:05;;;;;;;32.13;16.60;;;-2.60;99.90;;;;;;4915062;29;20656;-64
2023/01/18 01:56:33;;;;;;;32.80;17.03;;;-2.60;99.90;;;;;;4925720;29;20213;-64
2023/01/18 01:59:04;;;;;;;34.97;16.70;;;-2.60;99.90;;;;;;4911432;29;20257;-64
2023/01/18 02:01:53;;;;;;;29.07;16.53;;;-2.60;99.90;;;;;;4914568;29;22021;-64
2023/01/18 02:04:22;;;;;;;29.40;17.23;;;-2.60;99.90;;;;;;4914874;29;20225;-64
2023/01/18 02:06:50;;;;;;;32.07;17.23;;;-2.60;99.90;;;;;;4915935;29;20205;-63
2023/01/18 02:09:22;;;;;;;33.77;16.83;;;-2.50;99.90;;;;;;4916085;29;20201;-63
2023/01/18 02:11:52;;;;;;;32.83;17.13;;;-2.50;99.90;;;;;;4905919;29;20563;-64
2023/01/18 02:14:24;;;;;;;31.87;17.07;;;-2.40;99.90;;;;;;4899553;29;20186;-64
2023/01/18 02:17:04;;;;;;;28.53;15.57;;;-2.40;99.90;;;;;;4916461;29;20279;-63
2023/01/18 02:20:06;;;;;;;26.73;16.00;;;-2.40;99.90;;;;;;4912605;29;20244;-64
2023/01/18 02:22:59;;;;;;;33.67;17.00;;;-2.40;99.90;;;;;;4910668;29;20714;-64
2023/01/18 02:25:56;;;;;;;27.30;15.50;;;-2.40;99.90;;;;;;4914806;29;20714;-64
2023/01/18 02:28:29;;;;;;;30.30;15.97;;;-2.50;99.90;;;;;;4913492;29;20201;-64
2023/01/18 02:31:05;;;;;;;32.00;16.10;;;-2.50;99.90;;;;;;4912637;29;20210;-63
2023/01/18 02:33:40;;;;;;;30.50;16.67;;;-2.60;99.90;;;;;;4915121;29;20197;-63
2023/01/18 02:36:10;;;;;;;26.80;15.60;;;-2.60;99.90;;;;;;4911106;29;20200;-63
2023/01/18 02:38:43;;;;;;;35.53;17.00;;;-2.50;99.90;;;;;;4914000;29;20204;-64
2023/01/18 02:41:17;;;;;;;32.37;16.37;;;-2.60;99.90;;;;;;4913076;29;20198;-64
2023/01/18 02:46:39;;;;;;;32.40;16.00;;;-2.60;99.90;;;;;;4913494;29;20213;-64
2023/01/18 02:49:10;;;;;;;28.37;15.43;;;-2.60;99.90;;;;;;4909749;29;20219;-64
2023/01/18 02:51:39;;;;;;;29.93;16.37;;;-2.60;99.90;;;;;;4913272;29;20224;-64
2023/01/18 02:54:11;;;;;;;29.10;16.60;;;-2.50;99.90;;;;;;4913052;29;20648;-64
2023/01/18 02:56:43;;;;;;;27.90;15.77;;;-2.50;99.90;;;;;;4906488;29;20205;-64
2023/01/18 02:59:16;;;;;;;28.47;16.93;;;-2.50;99.90;;;;;;4909212;29;20217;-64
2023/01/18 03:01:48;;;;;;;34.10;16.20;;;-2.50;99.90;;;;;;4905882;29;20201;-64
2023/01/18 03:04:21;;;;;;;32.13;16.40;;;-2.50;99.90;;;;;;4910763;29;20220;-64
2023/01/18 03:06:56;;;;;;;32.57;16.63;;;-2.50;99.90;;;;;;4905779;29;20217;-64
2023/01/18 03:09:26;;;;;;;32.23;16.00;;;-2.50;99.90;;;;;;4906148;29;20739;-64
2023/01/18 03:12:01;;;;;;;34.63;15.90;;;-2.50;99.90;;;;;;4904244;29;20205;-63
2023/01/18 03:14:39;;;;;;;27.30;15.87;;;-2.50;99.90;;;;;;4907827;29;20652;-63
2023/01/18 03:17:14;;;;;;;26.70;15.20;;;-2.50;99.90;;;;;;4913108;29;20202;-64
2023/01/18 03:20:05;;;;;;;30.77;15.97;;;-2.50;99.90;;;;;;4907224;29;20759;-64
2023/01/18 03:25:28;;;;;;;36.77;17.33;;;-2.50;99.90;;;;;;4910471;29;20220;-63
2023/01/18 03:33:44;;;;;;;32.83;16.70;;;-2.70;99.90;;;;;;4908249;29;20660;-63
2023/01/18 03:36:19;;;;;;;31.53;17.10;;;-2.80;99.90;;;;;;4914229;29;20228;-64
2023/01/18 03:38:54;;;;;;;42.47;19.20;;;-2.90;99.90;;;;;;4908325;29;20205;-63
2023/01/18 03:41:27;;;;;;;46.20;19.00;;;-2.90;99.90;;;;;;4911824;29;20208;-63
2023/01/18 03:44:04;;;;;;;42.77;18.33;;;-2.90;99.90;;;;;;4910238;29;20201;-64
2023/01/18 03:46:34;;;;;;;33.23;16.70;;;-3.00;99.90;;;;;;4906184;29;20201;-64
2023/01/18 03:49:04;;;;;;;33.50;16.17;;;-3.00;99.90;;;;;;4908557;29;20206;-64
2023/01/18 03:51:46;;;;;;;28.03;15.50;;;-2.90;99.90;;;;;;4911785;29;20206;-63
2023/01/18 03:54:22;;;;;;;25.17;14.20;;;-3.00;99.90;;;;;;4914146;29;20201;-63
2023/01/18 03:56:57;;;;;;;20.33;13.40;;;-2.90;99.90;;;;;;4910936;29;20671;-63
2023/01/18 03:59:30;;;;;;;22.23;13.87;;;-2.90;99.90;;;;;;4911005;29;20205;-64
2023/01/18 04:02:00;;;;;;;24.57;14.40;;;-2.90;99.90;;;;;;4909253;29;20205;-64
2023/01/18 04:04:28;;;;;;;23.40;13.40;;;-2.90;99.90;;;;;;4910679;29;20221;-64
2023/01/18 04:06:57;;;;;;;25.40;14.20;;;-2.90;99.90;;;;;;4913259;29;20201;-64
2023/01/18 04:09:26;;;;;;;26.90;14.83;;;-2.80;99.90;;;;;;4908465;29;20197;-64
2023/01/18 04:11:54;;;;;;;22.20;13.23;;;-2.80;99.90;;;;;;4904622;29;20205;-63
2023/01/18 04:14:23;;;;;;;27.23;14.67;;;-2.70;99.90;;;;;;4914754;29;20202;-64
2023/01/18 04:16:51;;;;;;;28.23;13.83;;;-2.70;99.90;;;;;;4917632;29;20199;-64
2023/01/18 04:19:21;;;;;;;25.70;14.47;;;-2.70;99.90;;;;;;4911716;29;20205;-63
2023/01/18 04:21:50;;;;;;;22.03;13.53;;;-2.60;99.90;;;;;;4911916;29;20205;-64
2023/01/18 04:24:18;;;;;;;23.07;14.00;;;-2.60;99.90;;;;;;4916829;29;20236;-63
2023/01/18 04:26:46;;;;;;;28.17;14.23;;;-2.60;99.90;;;;;;4909566;29;20209;-63
2023/01/18 04:29:15;;;;;;;25.97;13.70;;;-2.60;99.90;;;;;;4905599;29;20204;-63
2023/01/18 04:31:44;;;;;;;31.97;15.10;;;-2.60;99.90;;;;;;4914078;29;20680;-63
2023/01/18 04:34:12;;;;;;;24.77;13.77;;;-2.50;99.90;;;;;;4917587;29;20190;-63
2023/01/18 04:36:43;;;;;;;24.53;13.97;;;-2.50;99.90;;;;;;4917920;29;20193;-64
2023/01/18 04:39:13;;;;;;;23.47;12.97;;;-2.50;99.90;;;;;;4917336;29;20201;-63
2023/01/18 04:41:41;;;;;;;24.33;14.13;;;-2.40;99.90;;;;;;4918780;29;20284;-63
2023/01/18 04:44:10;;;;;;;21.17;13.33;;;-2.40;99.90;;;;;;4913875;29;20205;-63
2023/01/18 04:46:39;;;;;;;24.13;13.43;;;-2.40;99.90;;;;;;4910874;29;20233;-63
2023/01/18 04:49:12;;;;;;;25.03;13.07;;;-2.50;99.90;;;;;;4914543;29;20236;-63
2023/01/18 04:51:41;;;;;;;26.57;13.53;;;-2.50;99.90;;;;;;4915814;29;20197;-64
2023/01/18 04:54:13;;;;;;;22.03;13.07;;;-2.50;99.90;;;;;;4913693;29;20201;-63
2023/01/18 04:56:41;;;;;;;25.60;13.27;;;-2.40;99.90;;;;;;4912505;29;20201;-64
2023/01/18 04:59:14;;;;;;;20.97;12.70;;;-2.40;99.90;;;;;;4911577;29;20225;-64
2023/01/18 05:01:43;;;;;;;24.13;12.63;;;-2.40;99.90;;;;;;4927624;29;20249;-64
2023/01/18 05:04:12;;;;;;;25.20;12.67;;;-2.40;99.90;;;;;;4913068;29;20245;-64
2023/01/18 05:06:40;;;;;;;24.10;11.80;;;-2.40;99.90;;;;;;4914035;29;20213;-63
2023/01/18 05:09:12;;;;;;;20.60;12.57;;;-2.40;99.90;;;;;;4915478;29;20220;-64
2023/01/18 05:11:41;;;;;;;20.57;12.50;;;-2.40;99.90;;;;;;4908663;29;20186;-64
2023/01/18 05:14:10;;;;;;;20.80;11.87;;;-2.40;99.90;;;;;;4910012;29;20201;-64
2023/01/18 05:16:39;;;;;;;25.87;12.10;;;-2.40;99.90;;;;;;4908621;29;20202;-64
2023/01/18 05:19:08;;;;;;;21.57;11.70;;;-2.30;99.90;;;;;;4913336;29;20212;-64
2023/01/18 05:21:41;;;;;;;19.00;11.50;;;-2.30;99.90;;;;;;4911014;29;20273;-64
2023/01/18 05:24:10;;;;;;;17.47;11.60;;;-2.30;99.90;;;;;;4911389;29;20775;-64
2023/01/18 05:26:39;;;;;;;17.20;10.90;;;-2.20;99.90;;;;;;4912125;29;20229;-64
2023/01/18 05:29:07;;;;;;;21.53;11.87;;;-2.20;99.90;;;;;;4912804;29;20545;-64
2023/01/18 05:31:35;;;;;;;21.00;10.97;;;-2.20;99.90;;;;;;4913146;29;20645;-64
2023/01/18 05:34:06;;;;;;;18.57;11.30;;;-2.20;99.90;;;;;;4910830;29;20201;-63
2023/01/18 05:36:35;;;;;;;20.50;11.63;;;-2.10;99.90;;;;;;4913208;29;20206;-64
2023/01/18 05:39:03;;;;;;;16.00;10.40;;;-2.20;99.90;;;;;;4912530;29;20208;-64
2023/01/18 05:41:35;;;;;;;23.93;11.10;;;-2.20;99.90;;;;;;4910187;29;20213;-64
2023/01/18 05:44:04;;;;;;;17.87;10.43;;;-2.20;99.90;;;;;;4914790;29;20201;-64
2023/01/18 05:46:33;;;;;;;20.83;10.80;;;-2.20;99.90;;;;;;4910180;29;20230;-63
2023/01/18 05:49:01;;;;;;;14.53;10.43;;;-2.20;99.90;;;;;;4916325;29;20542;-64
2023/01/18 05:51:31;;;;;;;15.57;11.00;;;-2.20;99.90;;;;;;4914910;29;20205;-64
2023/01/18 05:54:00;;;;;;;15.37;10.07;;;-2.20;99.90;;;;;;4912922;29;20206;-64
2023/01/18 05:56:28;;;;;;;20.30;11.13;;;-2.20;99.90;;;;;;4915545;29;20209;-63
2023/01/18 05:58:58;;;;;;;18.73;10.93;;;-2.10;99.90;;;;;;4914050;29;20228;-63
2023/01/18 06:01:26;;;;;;;14.80;9.83;;;-2.10;99.90;;;;;;4915420;29;20305;-64
2023/01/18 06:03:55;;;;;;;16.47;10.20;;;-2.10;99.90;;;;;;4920496;29;20212;-64
2023/01/18 06:06:23;;;;;;;17.23;10.67;;;-2.10;99.90;;;;;;4913479;29;20219;-64
2023/01/18 06:08:51;;;;;;;19.20;10.30;;;-2.20;99.90;;;;;;4906484;29;20214;-64
2023/01/18 06:11:20;;;;;;;17.20;10.70;;;-2.20;99.90;;;;;;4915459;29;20202;-64
2023/01/18 06:13:51;;;;;;;16.90;10.80;;;-2.20;99.90;;;;;;4926123;29;20205;-64
2023/01/18 06:16:20;;;;;;;18.57;11.17;;;-2.20;99.90;;;;;;4916988;29;20546;-64
2023/01/18 06:18:50;;;;;;;16.60;10.67;;;-2.10;99.90;;;;;;4888248;29;20194;-64
2023/01/18 06:21:18;;;;;;;17.63;10.10;;;-2.00;99.90;;;;;;4915992;29;20202;-64
2023/01/18 06:23:47;;;;;;;16.03;10.43;;;-2.10;99.90;;;;;;4909494;29;20229;-64
2023/01/18 06:26:15;;;;;;;24.83;12.40;;;-2.10;99.90;;;;;;4909898;29;20249;-64
2023/01/18 06:28:43;;;;;;;20.90;11.33;;;-2.10;99.90;;;;;;4913162;29;20213;-64
2023/01/18 06:31:12;;;;;;;21.20;11.37;;;-2.10;99.90;;;;;;4915549;29;20205;-64
2023/01/18 06:33:41;;;;;;;19.57;11.73;;;-2.10;99.90;;;;;;4916392;29;20216;-64
2023/01/18 06:36:10;;;;;;;22.10;12.23;;;-2.10;99.90;;;;;;4910869;29;20865;-64
2023/01/18 06:38:38;;;;;;;18.47;11.00;;;-2.10;99.90;;;;;;4915598;29;20198;-64
2023/01/18 06:41:06;;;;;;;20.07;12.07;;;-2.10;99.90;;;;;;4910140;29;20209;-64
2023/01/18 06:43:35;;;;;;;21.77;12.43;;;-2.10;99.90;;;;;;4910206;29;20253;-64
2023/01/18 06:46:06;;;;;;;18.97;12.17;;;-2.00;99.90;;;;;;4908043;29;20244;-64
2023/01/18 06:48:35;;;;;;;21.93;12.23;;;-2.00;99.90;;;;;;4912860;29;20209;-64
2023/01/18 06:51:05;;;;;;;18.60;11.40;;;-1.90;99.90;;;;;;4909756;29;20205;-64
2023/01/18 06:53:33;;;;;;;21.50;13.17;;;-1.90;99.90;;;;;;4912032;29;20205;-64
2023/01/18 06:56:09;;;;;;;20.67;12.57;;;-1.90;99.90;;;;;;4911903;29;20213;-64
2023/01/18 06:58:37;;;;;;;26.20;12.83;;;-1.90;99.90;;;;;;4913792;29;20714;-63
2023/01/18 07:01:06;;;;;;;21.80;11.87;;;-1.80;99.90;;;;;;4912054;29;20205;-64
2023/01/18 07:03:35;;;;;;;25.27;12.63;;;-1.80;99.90;;;;;;4913146;29;20530;-64
2023/01/18 07:06:06;;;;;;;20.00;11.83;;;-1.70;99.90;;;;;;4910468;29;20222;-64
2023/01/18 07:08:35;;;;;;;23.97;12.17;;;-1.70;99.90;;;;;;4912507;29;20249;-64
2023/01/18 07:11:09;;;;;;;22.87;11.97;;;-1.70;99.90;;;;;;4906305;29;20206;-64
2023/01/18 07:13:39;;;;;;;22.97;12.57;;;-1.70;99.90;;;;;;4920055;29;20202;-64
2023/01/18 07:16:16;;;;;;;20.97;12.73;;;-1.70;99.90;;;;;;4905392;29;20208;-64
2023/01/18 07:18:45;;;;;;;21.53;12.63;;;-1.70;99.90;;;;;;4913268;29;21206;-64
2023/01/18 07:21:16;;;;;;;22.17;12.10;;;-1.70;99.90;;;;;;4904236;29;20520;-64
2023/01/18 07:23:44;;;;;;;21.57;12.47;;;-1.60;99.90;;;;;;4904663;29;20588;-64
2023/01/18 07:26:15;;;;;;;25.03;12.03;;;-1.60;99.90;;;;;;4916240;29;20215;-64
2023/01/18 07:28:44;;;;;;;17.87;11.70;;;-1.60;99.90;;;;;;4911100;29;20642;-64
2023/01/18 07:31:12;;;;;;;20.13;11.67;;;-1.50;99.90;;;;;;4906779;29;20196;-64
2023/01/18 07:33:40;;;;;;;25.97;12.50;;;-1.50;99.90;;;;;;4911057;29;20212;-64
2023/01/18 07:36:10;;;;;;;19.63;12.83;;;-1.50;99.90;;;;;;4913606;29;20205;-64
2023/01/18 07:38:40;;;;;;;22.90;12.50;;;-1.50;99.90;;;;;;4909518;29;20293;-64
2023/01/18 07:41:10;;;;;;;17.73;11.57;;;-1.50;99.90;;;;;;4912643;29;20197;-64
2023/01/18 07:43:38;;;;;;;22.73;12.57;;;-1.60;99.90;;;;;;4913031;29;20201;-64
2023/01/18 07:46:10;;;;;;;23.97;12.87;;;-1.50;99.90;;;;;;4915600;29;20201;-64
2023/01/18 07:48:41;;;;;;;22.30;13.07;;;-1.50;99.90;;;;;;4906616;29;20248;-64
2023/01/18 07:51:11;;;;;;;23.37;12.63;;;-1.50;99.90;;;;;;4915662;29;20205;-64
2023/01/18 07:53:41;;;;;;;21.43;13.27;;;-1.50;99.90;;;;;;4910655;29;20213;-64
2023/01/18 07:56:12;;;;;;;20.10;12.50;;;-1.50;99.90;;;;;;4915954;29;20236;-64
2023/01/18 07:58:43;;;;;;;26.17;13.47;;;-1.50;99.90;;;;;;4915889;29;20723;-64
2023/01/18 08:01:14;;;;;;;22.47;13.10;;;-1.50;99.90;;;;;;4909518;29;20201;-64
2023/01/18 08:03:44;;;;;;;23.27;12.97;;;-1.50;99.90;;;;;;4913720;29;20667;-64
2023/01/18 08:06:15;;;;;;;18.03;12.73;;;-1.50;99.90;;;;;;4914998;29;20612;-64
2023/01/18 08:08:46;;;;;;;23.57;13.13;;;-1.50;99.90;;;;;;4914661;29;20205;-64
2023/01/18 08:11:14;;;;;;;27.43;12.30;;;-1.50;99.90;;;;;;4911360;29;20274;-64
2023/01/18 08:13:43;;;;;;;20.90;11.90;;;-1.50;99.90;;;;;;4912277;29;20281;-64
2023/01/18 08:16:12;;;;;;;25.83;13.17;;;-1.50;99.90;;;;;;4913008;29;20276;-64
2023/01/18 08:18:41;;;;;;;24.67;13.80;;;-1.40;99.90;;;;;;4913205;29;20635;-64
2023/01/18 08:21:11;;;;;;;27.13;13.87;;;-1.40;99.90;;;;;;4915191;29;20198;-64
2023/01/18 08:23:39;;;;;;;24.60;13.60;;;-1.40;99.90;;;;;;4914295;29;20233;-64
2023/01/18 08:26:11;;;;;;;23.43;14.10;;;-1.40;99.90;;;;;;4913730;29;20202;-64
2023/01/18 08:28:40;;;;;;;24.47;13.77;;;-1.30;99.90;;;;;;4889172;29;20568;-64
2023/01/18 08:31:11;;;;;;;22.43;12.90;;;-1.30;99.90;;;;;;4914767;29;20288;-64
2023/01/18 08:33:41;;;;;;;20.03;12.77;;;-1.20;99.90;;;;;;4912494;29;20198;-64
2023/01/18 08:36:11;;;;;;;21.63;12.90;;;-1.20;99.90;;;;;;4905558;29;20221;-64
2023/01/18 08:38:40;;;;;;;23.97;13.47;;;-1.20;99.90;;;;;;4914803;29;20628;-64
2023/01/18 08:41:10;;;;;;;21.37;13.03;;;-1.20;99.90;;;;;;4912336;29;20571;-64
2023/01/18 08:43:38;;;;;;;25.30;12.53;;;-1.20;99.90;;;;;;4909603;29;20296;-64
2023/01/18 08:46:06;;;;;;;22.17;12.87;;;-1.20;99.90;;;;;;4913430;29;20193;-64
2023/01/18 08:48:35;;;;;;;23.17;12.20;;;-1.10;99.90;;;;;;4909038;29;20221;-64
2023/01/18 08:51:04;;;;;;;21.47;12.33;;;-1.00;99.90;;;;;;4912957;29;20205;-64
2023/01/18 08:53:32;;;;;;;20.37;12.77;;;-1.00;99.90;;;;;;4911016;29;20292;-64
2023/01/18 08:56:04;;;;;;;21.23;12.50;;;-0.90;99.90;;;;;;4913827;29;20217;-64
2023/01/18 08:58:34;;;;;;;16.53;11.47;;;-0.80;99.90;;;;;;4918517;29;20243;-64
2023/01/18 09:01:05;;;;;;;25.37;12.33;;;-0.90;99.90;;;;;;4910357;29;20198;-64
2023/01/18 09:03:35;;;;;;;21.20;12.17;;;-0.90;99.90;;;;;;4915287;29;20241;-64
2023/01/18 09:06:06;;;;;;;23.17;12.97;;;-0.90;99.90;;;;;;4918003;29;20272;-64
2023/01/18 09:08:36;;;;;;;21.00;12.60;;;-0.80;99.90;;;;;;4915141;29;21045;-64
2023/01/18 09:11:07;;;;;;;21.97;12.13;;;-0.80;99.90;;;;;;4916458;29;20212;-64
2023/01/18 09:13:37;;;;;;;21.63;11.43;;;-0.60;99.90;;;;;;4910110;29;20202;-64
2023/01/18 09:16:25;;;;;;;21.20;12.07;;;-0.60;99.90;;;;;;4914028;29;20682;-64
2023/01/18 09:18:55;;;;;;;25.73;13.27;;;-0.50;99.90;;;;;;4916881;29;20272;-64
2023/01/18 09:21:24;;;;;;;21.57;13.07;;;-0.40;99.90;;;;;;4916781;29;20671;-64
2023/01/18 09:23:52;;;;;;;19.63;12.07;;;-0.20;99.90;;;;;;4914388;29;20237;-64
2023/01/18 09:26:20;;;;;;;25.47;12.13;;;-0.10;99.90;;;;;;4906697;29;20289;-64
2023/01/18 09:28:52;;;;;;;25.20;13.10;;;0.00;99.90;;;;;;4915978;29;20233;-64
2023/01/18 09:31:23;;;;;;;21.87;11.97;;;0.20;99.90;;;;;;4913803;29;20193;-64
2023/01/18 09:33:51;;;;;;;27.80;12.70;;;0.30;99.90;;;;;;4914209;29;20560;-64
2023/01/18 09:36:25;;;;;;;21.20;11.80;;;0.40;99.90;;;;;;4915475;29;20249;-64
2023/01/18 09:38:55;;;;;;;19.03;11.60;;;0.60;99.90;;;;;;4912739;29;20582;-64
2023/01/18 09:41:31;;;;;;;43.50;12.60;;;0.70;99.90;;;;;;4913229;29;20205;-65
2023/01/18 09:44:05;;;;;;;31.03;11.67;;;0.90;99.90;;;;;;4914567;29;20257;-65
2023/01/18 09:46:37;;;;;;;21.77;11.67;;;1.20;99.90;;;;;;4906020;29;20744;-65
2023/01/18 09:49:13;;;;;;;21.80;10.40;;;1.30;99.90;;;;;;4922555;29;20245;-65
2023/01/18 09:51:50;;;;;;;27.67;11.57;;;1.50;99.90;;;;;;4914070;29;20201;-66
2023/01/18 09:54:32;;;;;;;17.93;10.63;;;1.60;99.90;;;;;;4916736;29;20197;-66
2023/01/18 09:57:06;;;;;;;17.73;11.43;;;1.80;99.90;;;;;;4929443;29;20647;-65
2023/01/18 09:59:42;;;;;;;16.47;10.43;;;1.90;99.90;;;;;;4915153;29;20201;-66
2023/01/18 10:02:18;;;;;;;16.63;10.53;;;2.00;99.90;;;;;;4915869;29;20197;-66
2023/01/18 10:04:52;;;;;;;17.13;10.57;;;2.30;99.90;;;;;;4916160;29;20216;-66
2023/01/18 10:07:24;;;;;;;18.57;10.20;;;2.70;99.90;;;;;;4917925;29;20198;-66
2023/01/18 10:09:56;;;;;;;15.43;9.67;;;3.00;99.90;;;;;;4910454;29;20197;-66
2023/01/18 10:12:33;;;;;;;16.87;9.30;;;3.30;99.90;;;;;;4917726;29;20285;-67
2023/01/18 10:15:09;;;;;;;17.00;9.50;;;3.50;99.90;;;;;;4916884;29;20212;-66
2023/01/18 10:17:40;;;;;;;29.47;9.97;;;3.70;99.90;;;;;;4912453;29;20197;-66
2023/01/18 10:20:16;;;;;;;19.80;9.20;;;3.90;99.90;;;;;;4913499;29;20228;-66
2023/01/18 10:22:49;;;;;;;15.50;9.17;;;4.00;99.90;;;;;;4916995;29;20197;-66
2023/01/18 10:25:24;;;;;;;18.90;8.77;;;4.20;99.90;;;;;;4910864;29;20197;-67
2023/01/18 10:28:24;;;;;;;16.03;8.57;;;4.30;99.90;;;;;;4916339;29;20746;-67
2023/01/18 10:31:05;;;;;;;19.83;9.40;;;4.40;99.90;;;;;;4916412;29;20227;-67
2023/01/18 10:33:38;;;;;;;15.13;9.40;;;4.60;99.90;;;;;;4916526;29;20260;-67
2023/01/18 10:36:14;;;;;;;13.80;9.17;;;4.60;99.90;;;;;;4914390;29;20671;-67
2023/01/18 10:38:43;;;;;;;13.53;8.10;;;4.60;99.90;;;;;;4917002;29;20678;-67
2023/01/18 10:41:19;;;;;;;15.07;10.03;;;4.60;99.90;;;;;;4907992;29;20200;-67
2023/01/18 10:43:48;;;;;;;17.13;8.90;;;4.70;99.90;;;;;;4912309;29;20215;-67
2023/01/18 10:46:19;;;;;;;15.27;9.07;;;4.80;99.90;;;;;;4910644;29;20190;-67
2023/01/18 10:48:49;;;;;;;16.07;8.10;;;5.10;99.90;;;;;;4915086;29;20252;-67
2023/01/18 10:51:29;;;;;;;12.77;7.70;;;5.20;99.90;;;;;;4912542;29;20207;-67
2023/01/18 10:53:59;;;;;;;13.27;7.20;;;5.20;99.90;;;;;;4913346;29;20221;-67
2023/01/18 10:56:28;;;;;;;12.37;7.60;;;5.30;99.90;;;;;;4911684;29;20217;-67
2023/01/18 10:58:58;;;;;;;8.50;7.07;;;5.40;99.90;;;;;;4910900;29;20228;-67
2023/01/18 11:01:30;;;;;;;12.03;6.90;;;5.60;99.90;;;;;;4913195;29;20617;-67
2023/01/18 11:04:04;;;;;;;8.93;5.90;;;5.70;99.90;;;;;;4907105;29;20680;-67
2023/01/18 11:06:45;;;;;;;7.67;6.20;;;5.60;99.90;;;;;;4910408;29;20197;-67
2023/01/18 11:09:40;;;;;;;10.80;5.90;;;5.60;99.90;;;;;;4917036;29;20256;-67
2023/01/18 11:12:36;;;;;;;6.93;5.40;;;5.60;99.90;;;;;;4914122;29;20210;-67
2023/01/18 11:15:27;;;;;;;8.13;5.67;;;5.80;99.90;;;;;;4912524;29;20568;-67
2023/01/18 11:18:10;;;;;;;7.83;4.87;;;5.80;99.90;;;;;;4905261;29;20209;-66
2023/01/18 11:20:50;;;;;;;7.73;4.40;;;5.70;99.90;;;;;;4907639;29;20220;-67
2023/01/18 11:23:22;;;;;;;6.17;3.93;;;5.70;99.90;;;;;;4909608;29;20628;-67
2023/01/18 11:25:57;;;;;;;4.73;4.20;;;5.80;99.90;;;;;;4907962;29;20739;-67
2023/01/18 11:28:30;;;;;;;5.40;4.17;;;6.00;99.90;;;;;;4908449;29;20209;-67
2023/01/18 11:31:06;;;;;;;8.10;4.13;;;6.00;99.90;;;;;;4910276;29;20273;-67
2023/01/18 11:33:46;;;;;;;7.17;4.57;;;6.00;99.90;;;;;;4909358;29;20204;-67
2023/01/18 11:36:15;;;;;;;6.07;4.70;;;6.10;99.90;;;;;;4912694;29;20647;-67
2023/01/18 11:38:44;;;;;;;8.93;4.40;;;6.10;99.90;;;;;;4902894;29;20197;-67
2023/01/18 11:41:15;;;;;;;14.77;6.53;;;6.10;99.90;;;;;;4906016;29;20213;-67
2023/01/18 11:44:03;;;;;;;15.67;7.23;;;6.10;99.90;;;;;;4907698;29;20216;-67
2023/01/18 11:46:40;;;;;;;18.70;9.30;;;6.10;99.90;;;;;;4910433;29;20224;-67
2023/01/18 11:49:26;;;;;;;26.33;12.67;;;6.20;99.90;;;;;;4908973;29;20668;-67
2023/01/18 11:52:00;;;;;;;10.83;6.03;;;6.20;99.90;;;;;;4911933;29;20208;-67
2023/01/18 11:54:36;;;;;;;6.07;4.30;;;6.40;99.90;;;;;;4905922;29;20471;-67
2023/01/18 11:57:09;;;;;;;13.60;4.83;;;6.60;99.90;;;;;;4912476;29;20197;-66
2023/01/18 11:59:42;;;;;;;8.50;4.43;;;6.60;99.90;;;;;;4911943;29;20190;-67
2023/01/18 12:02:54;;;;;;;5.87;4.73;;;6.60;99.90;;;;;;4913981;29;20220;-66
2023/01/18 12:05:35;;;;;;;7.77;4.33;;;6.30;99.90;;;;;;4904222;29;20248;-66
2023/01/18 12:08:37;;;;;;;7.60;4.50;;;6.20;99.90;;;;;;4898609;29;20202;-66
2023/01/18 12:11:29;;;;;;;5.20;4.70;;;6.00;99.90;;;;;;4911110;29;20216;-66
2023/01/18 12:14:02;;;;;;;5.60;4.60;;;6.00;99.90;;;;;;4898966;29;20566;-66
2023/01/18 12:16:45;;;;;;;11.33;5.20;;;5.90;99.90;;;;;;4909471;29;20202;-67
2023/01/18 12:19:32;;;;;;;12.03;5.17;;;5.90;99.90;;;;;;4910974;29;20224;-67
2023/01/18 12:22:21;;;;;;;6.47;4.87;;;5.90;99.90;;;;;;4915294;29;20197;-66
2023/01/18 12:25:01;;;;;;;9.70;5.20;;;5.90;99.90;;;;;;4927372;29;20244;-67
2023/01/18 12:27:39;;;;;;;10.37;5.83;;;6.00;99.90;;;;;;4910831;29;20201;-67
2023/01/18 12:30:27;;;;;;;9.73;5.70;;;6.00;99.90;;;;;;4913012;29;20255;-66
2023/01/18 12:33:06;;;;;;;13.50;6.17;;;6.00;99.90;;;;;;4914052;29;20288;-68
2023/01/18 12:35:55;;;;;;;13.87;6.43;;;6.00;99.90;;;;;;4908505;29;20220;-66
2023/01/18 12:38:29;;;;;;;10.67;5.60;;;6.10;99.90;;;;;;4912719;29;20260;-66
2023/01/18 12:41:24;;;;;;;9.63;5.50;;;6.20;99.90;;;;;;4915434;29;20210;-66
2023/01/18 12:44:06;;;;;;;9.00;5.53;;;6.20;99.90;;;;;;4914469;29;20213;-66
2023/01/18 12:46:42;;;;;;;6.73;6.00;;;6.20;99.90;;;;;;4912520;29;20227;-66
2023/01/18 12:49:17;;;;;;;7.77;5.90;;;6.10;99.90;;;;;;4913858;29;20229;-66
2023/01/18 12:51:49;;;;;;;9.20;5.60;;;6.20;99.90;;;;;;4909903;29;20661;-67
2023/01/18 12:54:27;;;;;;;7.30;5.57;;;6.40;99.90;;;;;;4912097;29;20347;-66
2023/01/18 12:56:57;;;;;;;8.27;6.00;;;6.50;99.90;;;;;;4916262;29;20579;-66
2023/01/18 12:59:29;;;;;;;5.97;4.97;;;6.70;99.90;;;;;;4916778;29;20201;-66
2023/01/18 13:02:04;;;;;;;8.57;5.40;;;6.80;99.90;;;;;;4914289;29;20791;-66
2023/01/18 13:04:40;;;;;;;7.00;5.57;;;6.80;99.90;;;;;;4908238;29;20812;-66
2023/01/18 13:07:14;;;;;;;8.53;5.27;;;6.70;99.90;;;;;;4912826;29;20208;-66
2023/01/18 13:09:48;;;;;;;7.07;5.27;;;6.80;99.90;;;;;;4906652;29;20338;-66
2023/01/18 13:12:17;;;;;;;9.50;5.30;;;6.90;99.90;;;;;;4914435;29;20208;-67
2023/01/18 13:14:51;;;;;;;7.93;4.87;;;6.90;99.90;;;;;;4911419;29;20206;-66
2023/01/18 13:17:26;;;;;;;10.10;5.10;;;6.90;99.90;;;;;;4907209;29;20272;-67
2023/01/18 13:20:01;;;;;;;9.23;5.30;;;6.70;99.90;;;;;;4909796;29;20845;-66
2023/01/18 13:22:35;;;;;;;6.50;5.40;;;6.80;99.90;;;;;;4912766;29;20548;-66
2023/01/18 13:25:29;;;;;;;6.13;5.53;;;6.80;99.90;;;;;;4910298;29;20236;-66
2023/01/18 13:27:59;;;;;;;6.93;5.50;;;6.70;99.90;;;;;;4908619;29;20296;-66
2023/01/18 13:30:30;;;;;;;6.97;5.57;;;6.50;99.90;;;;;;4906467;29;20328;-66